createdAt,value
2018-05-09T00:00:57.051Z,21.08
2018-05-09T00:01:57.067Z,21.13
2018-05-09T00:02:57.133Z,21.00
2018-05-09T00:03:57.099Z,21.01
2018-05-09T00:04:57.182Z,21.08
2018-05-09T00:05:57.131Z,21.05
2018-05-09T00:06:57.165Z,21.03
2018-05-09T00:07:57.137Z,21.05
2018-05-09T00:08:57.177Z,21.05
2018-05-09T00:09:57.181Z,21.03
2018-05-09T00:10:57.235Z,20.96
2018-05-09T00:11:57.209Z,20.90
2018-05-09T00:12:57.249Z,20.87
2018-05-09T00:13:57.245Z,20.78
2018-05-09T00:14:57.247Z,20.50
2018-05-09T00:15:57.249Z,20.50
2018-05-09T00:16:57.621Z,20.58
2018-05-09T00:17:57.277Z,20.53
2018-05-09T00:18:57.315Z,20.56
2018-05-09T00:19:57.352Z,20.56
2018-05-09T00:20:57.334Z,20.38
2018-05-09T00:21:57.338Z,20.46
2018-05-09T00:22:57.347Z,20.50
2018-05-09T00:23:57.347Z,20.51
2018-05-09T00:24:57.371Z,20.53
2018-05-09T00:25:57.386Z,20.41
2018-05-09T00:26:57.399Z,20.53
2018-05-09T00:27:57.512Z,20.46
2018-05-09T00:28:57.416Z,20.57
2018-05-09T00:29:57.440Z,20.58
2018-05-09T00:30:57.478Z,20.54
2018-05-09T00:31:57.455Z,20.42
2018-05-09T00:32:57.475Z,20.42
2018-05-09T00:33:57.489Z,20.46
2018-05-09T00:34:57.550Z,20.57
2018-05-09T00:35:57.555Z,20.57
2018-05-09T00:36:57.552Z,20.63
2018-05-09T00:37:57.536Z,20.56
2018-05-09T00:38:57.566Z,20.60
2018-05-09T00:39:57.599Z,20.54
2018-05-09T00:40:57.584Z,20.41
2018-05-09T00:41:57.589Z,20.48
2018-05-09T00:42:57.592Z,20.53
2018-05-09T00:43:57.607Z,20.54
2018-05-09T00:44:57.632Z,20.57
2018-05-09T00:45:57.698Z,20.58
2018-05-09T00:46:57.655Z,20.61
2018-05-09T00:47:57.677Z,20.58
2018-05-09T00:48:57.793Z,20.61
2018-05-09T00:49:57.708Z,20.60
2018-05-09T00:50:57.703Z,20.48
2018-05-09T00:51:57.748Z,20.42
2018-05-09T00:52:57.734Z,20.41
2018-05-09T00:53:57.813Z,20.41
2018-05-09T00:54:57.781Z,20.42
2018-05-09T00:55:57.766Z,20.44
2018-05-09T00:56:57.786Z,20.41
2018-05-09T00:57:57.789Z,20.40
2018-05-09T00:58:57.798Z,20.40
2018-05-09T00:59:57.844Z,20.37
2018-05-09T01:00:57.855Z,20.42
2018-05-09T01:01:57.839Z,20.38
2018-05-09T01:02:57.876Z,20.40
2018-05-09T01:03:57.868Z,20.35
2018-05-09T01:04:57.886Z,20.38
2018-05-09T01:05:57.916Z,20.40
2018-05-09T01:06:57.992Z,20.34
2018-05-09T01:07:57.943Z,20.38
2018-05-09T01:08:57.951Z,20.26
2018-05-09T01:09:57.948Z,20.33
2018-05-09T01:10:57.956Z,20.23
2018-05-09T01:11:57.981Z,20.23
2018-05-09T01:12:58.051Z,20.33
2018-05-09T01:13:58.020Z,20.27
2018-05-09T01:14:58.016Z,20.37
2018-05-09T01:15:58.023Z,20.38
2018-05-09T01:16:58.047Z,20.41
2018-05-09T01:17:58.063Z,20.33
2018-05-09T01:18:58.071Z,20.26
2018-05-09T01:19:58.092Z,20.25
2018-05-09T01:20:58.088Z,20.31
2018-05-09T01:21:58.133Z,20.31
2018-05-09T01:22:58.113Z,20.22
2018-05-09T01:23:58.128Z,20.23
2018-05-09T01:24:58.162Z,20.33
2018-05-09T01:25:58.164Z,20.31
2018-05-09T01:26:58.202Z,20.31
2018-05-09T01:27:58.174Z,20.30
2018-05-09T01:28:58.289Z,20.30
2018-05-09T01:29:58.226Z,20.15
2018-05-09T01:30:58.226Z,20.19
2018-05-09T01:31:58.265Z,20.16
2018-05-09T01:32:58.258Z,20.20
2018-05-09T01:33:58.248Z,20.23
2018-05-09T01:34:58.276Z,20.19
2018-05-09T01:35:58.298Z,20.15
2018-05-09T01:36:58.304Z,20.17
2018-05-09T01:37:58.320Z,20.17
2018-05-09T01:38:58.359Z,20.20
2018-05-09T01:39:58.333Z,20.15
2018-05-09T01:40:58.468Z,20.17
2018-05-09T01:41:58.372Z,20.16
2018-05-09T01:42:58.456Z,20.22
2018-05-09T01:43:58.417Z,20.08
2018-05-09T01:44:58.395Z,20.10
2018-05-09T01:45:58.410Z,20.08
2018-05-09T01:47:58.526Z,20.10
2018-05-09T01:48:58.505Z,20.07
2018-05-09T01:49:58.496Z,20.08
2018-05-09T01:50:58.475Z,20.05
2018-05-09T01:51:58.512Z,20.07
2018-05-09T01:52:58.508Z,19.97
2018-05-09T01:53:58.517Z,20.10
2018-05-09T01:54:58.588Z,20.04
2018-05-09T01:55:58.642Z,19.94
2018-05-09T01:56:58.573Z,20.02
2018-05-09T01:57:58.553Z,20.04
2018-05-09T01:58:58.581Z,20.05
2018-05-09T01:59:58.609Z,20.02
2018-05-09T02:00:58.626Z,20.02
2018-05-09T02:01:58.664Z,19.92
2018-05-09T02:02:58.630Z,19.89
2018-05-09T02:03:58.674Z,19.89
2018-05-09T02:04:58.665Z,19.97
2018-05-09T02:05:58.719Z,19.97
2018-05-09T02:06:58.717Z,19.92
2018-05-09T02:07:58.713Z,19.86
2018-05-09T02:08:58.696Z,19.83
2018-05-09T02:09:58.820Z,19.86
2018-05-09T02:10:58.889Z,19.87
2018-05-09T02:11:58.743Z,19.95
2018-05-09T02:12:58.747Z,19.89
2018-05-09T02:13:58.857Z,19.92
2018-05-09T02:14:58.771Z,19.94
2018-05-09T02:15:58.822Z,19.86
2018-05-09T02:16:58.840Z,19.79
2018-05-09T02:17:58.827Z,19.85
2018-05-09T02:18:58.817Z,19.82
2018-05-09T02:19:58.828Z,19.71
2018-05-09T02:20:58.850Z,19.82
2018-05-09T02:21:58.898Z,19.80
2018-05-09T02:22:58.884Z,19.83
2018-05-09T02:23:59.000Z,19.76
2018-05-09T02:24:58.902Z,19.76
2018-05-09T02:25:58.902Z,19.79
2018-05-09T02:26:58.921Z,19.79
2018-05-09T02:27:58.923Z,19.75
2018-05-09T02:28:58.966Z,19.79
2018-05-09T02:29:58.974Z,19.85
2018-05-09T02:30:59.031Z,19.75
2018-05-09T02:31:59.014Z,19.75
2018-05-09T02:32:59.026Z,19.72
2018-05-09T02:33:59.036Z,19.61
2018-05-09T02:34:59.030Z,19.62
2018-05-09T02:35:59.032Z,19.52
2018-05-09T02:36:59.037Z,19.65
2018-05-09T02:37:59.068Z,19.55
2018-05-09T02:38:59.056Z,19.60
2018-05-09T02:39:59.093Z,19.53
2018-05-09T02:40:59.107Z,19.61
2018-05-09T02:41:59.106Z,19.58
2018-05-09T02:42:59.126Z,19.60
2018-05-09T02:43:59.138Z,19.60
2018-05-09T02:44:59.150Z,19.61
2018-05-09T02:45:59.153Z,19.55
2018-05-09T02:46:59.164Z,19.57
2018-05-09T02:47:59.166Z,19.58
2018-05-09T02:48:59.199Z,19.57
2018-05-09T02:49:59.278Z,19.58
2018-05-09T02:50:59.209Z,19.57
2018-05-09T02:51:59.246Z,19.47
2018-05-09T02:52:59.272Z,19.46
2018-05-09T02:53:59.257Z,19.49
2018-05-09T02:54:59.265Z,19.52
2018-05-09T02:55:59.262Z,19.55
2018-05-09T02:56:59.284Z,19.52
2018-05-09T02:57:59.292Z,19.55
2018-05-09T02:58:59.330Z,19.57
2018-05-09T02:59:59.351Z,19.64
2018-05-09T03:00:59.330Z,19.49
2018-05-09T03:01:59.364Z,19.49
2018-05-09T03:02:59.374Z,19.50
2018-05-09T03:03:59.380Z,19.55
2018-05-09T03:04:59.404Z,19.49
2018-05-09T03:05:59.412Z,19.50
2018-05-09T03:06:59.415Z,19.50
2018-05-09T03:07:59.426Z,19.38
2018-05-09T03:08:59.456Z,19.39
2018-05-09T03:09:59.470Z,19.40
2018-05-09T03:10:59.455Z,19.39
2018-05-09T03:11:59.592Z,19.32
2018-05-09T03:12:59.469Z,19.38
2018-05-09T03:13:59.491Z,19.38
2018-05-09T03:14:59.528Z,19.35
2018-05-09T03:15:59.580Z,19.43
2018-05-09T03:16:59.525Z,19.42
2018-05-09T03:17:59.572Z,19.20
2018-05-09T03:18:59.537Z,19.28
2018-05-09T03:19:59.613Z,19.34
2018-05-09T03:20:59.623Z,19.17
2018-05-09T03:21:59.600Z,19.15
2018-05-09T03:22:59.613Z,19.20
2018-05-09T03:23:59.613Z,19.20
2018-05-09T03:24:59.629Z,19.10
2018-05-09T03:25:59.679Z,19.20
2018-05-09T03:26:59.640Z,19.21
2018-05-09T03:27:59.644Z,19.13
2018-05-09T03:28:59.684Z,19.23
2018-05-09T03:29:59.669Z,19.34
2018-05-09T03:30:59.707Z,19.31
2018-05-09T03:31:59.695Z,19.25
2018-05-09T03:32:59.728Z,19.23
2018-05-09T03:33:59.719Z,19.21
2018-05-09T03:34:59.726Z,19.20
2018-05-09T03:35:59.834Z,19.13
2018-05-09T03:36:59.811Z,19.15
2018-05-09T03:37:59.857Z,19.25
2018-05-09T03:38:59.781Z,19.20
2018-05-09T03:39:59.831Z,19.31
2018-05-09T03:40:59.880Z,19.27
2018-05-09T03:41:59.889Z,19.23
2018-05-09T03:42:59.831Z,19.23
2018-05-09T03:43:59.862Z,19.20
2018-05-09T03:44:59.865Z,19.25
2018-05-09T03:45:59.897Z,19.13
2018-05-09T03:46:59.877Z,19.25
2018-05-09T03:47:59.917Z,19.23
2018-05-09T03:48:59.928Z,19.17
2018-05-09T03:49:59.965Z,19.24
2018-05-09T03:50:59.937Z,19.25
2018-05-09T03:51:59.948Z,19.25
2018-05-09T03:52:59.950Z,19.23
2018-05-09T03:53:59.965Z,19.12
2018-05-09T03:54:59.971Z,19.20
2018-05-09T03:55:59.987Z,19.20
2018-05-09T03:56:59.994Z,19.27
2018-05-09T03:58:00.013Z,19.23
2018-05-09T03:59:00.067Z,19.15
2018-05-09T04:00:00.041Z,19.13
2018-05-09T04:01:00.096Z,19.20
2018-05-09T04:02:00.081Z,19.15
2018-05-09T04:03:00.091Z,19.10
2018-05-09T04:04:00.089Z,19.12
2018-05-09T04:05:00.091Z,19.15
2018-05-09T04:06:00.123Z,19.10
2018-05-09T04:07:00.122Z,19.12
2018-05-09T04:08:00.135Z,19.20
2018-05-09T04:09:00.209Z,19.17
2018-05-09T04:10:00.192Z,19.30
2018-05-09T04:11:00.179Z,19.27
2018-05-09T04:12:00.187Z,19.21
2018-05-09T04:13:00.195Z,19.17
2018-05-09T04:14:00.210Z,19.23
2018-05-09T04:15:00.210Z,19.25
2018-05-09T04:16:00.315Z,19.23
2018-05-09T04:17:00.236Z,19.30
2018-05-09T04:18:00.239Z,19.21
2018-05-09T04:19:00.261Z,19.16
2018-05-09T04:20:00.316Z,19.17
2018-05-09T04:21:00.373Z,19.24
2018-05-09T04:22:00.314Z,19.15
2018-05-09T04:23:00.297Z,19.17
2018-05-09T04:24:00.315Z,19.23
2018-05-09T04:25:00.323Z,19.38
2018-05-09T04:26:00.387Z,19.27
2018-05-09T04:27:00.402Z,19.24
2018-05-09T04:28:00.438Z,19.27
2018-05-09T04:29:00.428Z,19.28
2018-05-09T04:30:00.880Z,19.27
2018-05-09T04:31:00.398Z,19.31
2018-05-09T04:32:00.467Z,19.31
2018-05-09T04:33:00.437Z,19.40
2018-05-09T04:34:00.443Z,19.35
2018-05-09T04:35:00.512Z,19.32
2018-05-09T04:36:00.445Z,19.40
2018-05-09T04:37:00.493Z,19.45
2018-05-09T04:38:00.489Z,19.40
2018-05-09T04:39:00.485Z,19.42
2018-05-09T04:40:00.503Z,19.39
2018-05-09T04:41:00.524Z,19.40
2018-05-09T04:42:00.620Z,19.35
2018-05-09T04:43:00.538Z,19.39
2018-05-09T04:44:00.588Z,19.35
2018-05-09T04:45:00.565Z,19.35
2018-05-09T04:47:00.608Z,19.43
2018-05-09T04:48:00.615Z,19.35
2018-05-09T04:49:00.619Z,19.23
2018-05-09T04:50:00.621Z,19.23
2018-05-09T04:51:00.632Z,19.38
2018-05-09T04:52:00.650Z,19.45
2018-05-09T04:53:00.658Z,19.34
2018-05-09T04:54:00.694Z,19.40
2018-05-09T04:55:00.676Z,19.35
2018-05-09T04:56:00.717Z,19.31
2018-05-09T04:57:00.725Z,19.35
2018-05-09T04:58:00.720Z,19.49
2018-05-09T04:59:00.883Z,19.42
2018-05-09T05:00:00.877Z,19.39
2018-05-09T05:01:00.746Z,19.47
2018-05-09T05:02:00.782Z,19.38
2018-05-09T05:03:01.181Z,19.39
2018-05-09T05:04:00.782Z,19.47
2018-05-09T05:05:00.821Z,19.34
2018-05-09T05:06:00.841Z,19.32
2018-05-09T05:07:00.884Z,19.45
2018-05-09T05:08:00.854Z,19.43
2018-05-09T05:09:00.879Z,19.46
2018-05-09T05:10:01.064Z,19.67
2018-05-09T05:11:00.888Z,19.55
2018-05-09T05:12:00.880Z,19.62
2018-05-09T05:13:00.891Z,19.70
2018-05-09T05:14:00.892Z,19.71
2018-05-09T05:15:00.953Z,19.79
2018-05-09T05:16:00.923Z,19.79
2018-05-09T05:17:01.164Z,19.75
2018-05-09T05:18:00.948Z,19.83
2018-05-09T05:19:00.979Z,19.92
2018-05-09T05:20:00.962Z,19.94
2018-05-09T05:21:00.991Z,19.92
2018-05-09T05:22:00.991Z,19.97
2018-05-09T05:23:01.048Z,19.94
2018-05-09T05:24:01.017Z,19.82
2018-05-09T05:25:01.074Z,19.72
2018-05-09T05:26:01.069Z,19.76
2018-05-09T05:27:01.073Z,19.87
2018-05-09T05:28:01.093Z,19.89
2018-05-09T05:29:01.100Z,19.87
2018-05-09T05:30:01.111Z,19.86
2018-05-09T05:31:01.178Z,19.80
2018-05-09T05:32:01.121Z,19.92
2018-05-09T05:33:01.121Z,20.02
2018-05-09T05:34:01.155Z,20.08
2018-05-09T05:35:01.203Z,20.16
2018-05-09T05:36:01.200Z,20.15
2018-05-09T05:37:01.187Z,20.17
2018-05-09T05:38:01.208Z,20.19
2018-05-09T05:39:01.298Z,20.16
2018-05-09T05:40:01.202Z,20.17
2018-05-09T05:41:01.234Z,20.22
2018-05-09T05:42:01.246Z,20.23
2018-05-09T05:43:01.240Z,20.15
2018-05-09T05:44:01.253Z,20.17
2018-05-09T05:45:01.398Z,20.13
2018-05-09T05:46:01.282Z,20.15
2018-05-09T05:47:01.288Z,20.27
2018-05-09T05:48:01.359Z,20.30
2018-05-09T05:49:01.357Z,20.31
2018-05-09T05:50:01.356Z,20.31
2018-05-09T05:51:01.378Z,20.26
2018-05-09T05:52:01.359Z,20.25
2018-05-09T05:53:01.395Z,20.31
2018-05-09T05:54:01.432Z,20.30
2018-05-09T05:55:01.483Z,20.37
2018-05-09T05:56:01.426Z,20.30
2018-05-09T05:57:01.482Z,20.35
2018-05-09T05:58:01.463Z,20.44
2018-05-09T05:59:01.496Z,20.40
2018-05-09T06:00:01.482Z,20.46
2018-05-09T06:01:01.570Z,20.54
2018-05-09T06:02:01.487Z,20.58
2018-05-09T06:03:01.484Z,20.58
2018-05-09T06:04:01.506Z,20.63
2018-05-09T06:05:01.578Z,20.68
2018-05-09T06:06:01.518Z,20.71
2018-05-09T06:07:01.553Z,20.76
2018-05-09T06:08:01.628Z,20.76
2018-05-09T06:09:01.595Z,20.76
2018-05-09T06:10:01.611Z,20.81
2018-05-09T06:11:01.595Z,20.83
2018-05-09T06:12:01.605Z,20.87
2018-05-09T06:13:01.639Z,20.85
2018-05-09T06:14:01.681Z,20.87
2018-05-09T06:15:01.640Z,20.91
2018-05-09T06:16:01.658Z,20.96
2018-05-09T06:17:01.656Z,20.91
2018-05-09T06:18:01.681Z,20.98
2018-05-09T06:19:01.717Z,20.91
2018-05-09T06:20:01.706Z,20.93
2018-05-09T06:21:01.722Z,20.97
2018-05-09T06:22:01.777Z,21.01
2018-05-09T06:23:01.787Z,21.00
2018-05-09T06:24:01.760Z,21.00
2018-05-09T06:25:01.762Z,21.11
2018-05-09T06:26:01.774Z,21.19
2018-05-09T06:27:01.831Z,21.11
2018-05-09T06:28:01.820Z,21.24
2018-05-09T06:29:01.819Z,21.24
2018-05-09T06:30:01.832Z,21.38
2018-05-09T06:31:01.928Z,21.42
2018-05-09T06:32:01.852Z,21.46
2018-05-09T06:33:01.876Z,21.52
2018-05-09T06:34:01.873Z,21.48
2018-05-09T06:35:01.904Z,21.51
2018-05-09T06:36:01.983Z,21.49
2018-05-09T06:37:01.905Z,21.64
2018-05-09T06:38:01.946Z,21.71
2018-05-09T06:39:01.996Z,21.67
2018-05-09T06:40:02.028Z,21.71
2018-05-09T06:41:01.964Z,21.75
2018-05-09T06:42:01.975Z,21.71
2018-05-09T06:43:01.979Z,21.90
2018-05-09T06:44:01.990Z,21.99
2018-05-09T06:45:02.096Z,22.04
2018-05-09T06:46:02.036Z,22.12
2018-05-09T06:47:02.048Z,22.11
2018-05-09T17:25:31.993Z,33.18
2018-05-09T17:26:31.998Z,33.21
2018-05-09T17:27:32.049Z,33.21
2018-05-09T17:28:31.983Z,33.14
2018-05-09T17:29:32.004Z,32.90
2018-05-09T17:30:32.110Z,32.80
2018-05-09T17:31:32.113Z,32.68
2018-05-09T17:32:32.094Z,32.56
2018-05-09T17:33:32.121Z,32.50
2018-05-09T17:34:32.131Z,32.49
2018-05-09T17:35:32.110Z,32.32
2018-05-09T17:36:32.297Z,32.35
2018-05-09T17:37:32.227Z,32.24
2018-05-09T17:38:32.251Z,32.19
2018-05-09T17:39:32.211Z,32.14
2018-05-09T17:40:32.288Z,32.19
2018-05-09T17:41:32.261Z,32.27
2018-05-09T17:42:32.424Z,32.36
2018-05-09T17:43:32.283Z,32.41
2018-05-09T17:44:32.285Z,32.43
2018-05-09T17:45:32.318Z,32.46
2018-05-09T17:46:32.337Z,32.56
2018-05-09T17:47:32.363Z,32.51
2018-05-09T17:48:32.437Z,32.34
2018-05-09T17:49:32.440Z,32.10
2018-05-09T17:50:32.416Z,32.10
2018-05-09T17:51:32.459Z,31.97
2018-05-09T17:52:32.504Z,31.85
2018-05-09T17:53:32.482Z,31.71
2018-05-09T17:54:32.576Z,31.67
2018-05-09T17:55:32.564Z,31.57
2018-05-09T17:56:32.525Z,31.42
2018-05-09T17:57:32.643Z,31.32
2018-05-09T17:58:32.704Z,31.13
2018-05-09T17:59:32.725Z,31.10
2018-05-09T18:00:32.610Z,31.10
2018-05-09T18:01:32.633Z,30.91
2018-05-09T18:03:32.792Z,30.79
2018-05-09T18:04:32.724Z,30.64
2018-05-09T18:05:32.852Z,30.46
2018-05-09T18:06:32.921Z,30.46
2018-05-09T18:07:32.763Z,30.44
2018-05-09T18:08:32.783Z,30.40
2018-05-09T18:09:32.847Z,30.32
2018-05-09T18:10:32.805Z,30.26
2018-05-09T18:11:32.865Z,30.07
2018-05-09T18:12:32.937Z,30.04
2018-05-09T18:13:32.903Z,29.88
2018-05-09T18:14:32.927Z,29.78
2018-05-09T18:15:32.930Z,29.74
2018-05-09T18:16:32.934Z,29.69
2018-05-09T18:17:32.954Z,29.55
2018-05-09T18:18:32.967Z,29.49
2018-05-09T18:19:32.997Z,29.36
2018-05-09T18:20:33.011Z,29.27
2018-05-09T18:21:33.116Z,29.12
2018-05-09T18:22:33.115Z,29.10
2018-05-09T18:23:33.091Z,28.91
2018-05-09T18:24:33.100Z,28.91
2018-05-09T18:25:33.109Z,28.89
2018-05-09T18:26:33.152Z,28.72
2018-05-09T18:27:33.152Z,28.62
2018-05-09T18:28:33.163Z,28.61
2018-05-09T18:29:33.199Z,28.50
2018-05-09T18:30:33.413Z,28.38
2018-05-09T18:31:33.223Z,28.39
2018-05-09T18:32:33.239Z,28.33
2018-05-09T18:34:33.687Z,28.18
2018-05-09T18:35:33.673Z,28.02
2018-05-09T18:36:33.384Z,27.98
2018-05-09T18:37:33.331Z,27.99
2018-05-09T18:38:33.357Z,27.81
2018-05-09T18:39:33.397Z,27.74
2018-05-09T18:40:33.395Z,27.78
2018-05-09T18:41:33.500Z,27.74
2018-05-09T18:42:33.427Z,27.66
2018-05-09T18:43:33.475Z,27.58
2018-05-09T18:44:33.568Z,27.52
2018-05-09T18:45:33.499Z,27.49
2018-05-09T18:46:33.509Z,27.48
2018-05-09T18:47:33.556Z,27.38
2018-05-09T18:48:33.557Z,27.31
2018-05-09T18:49:33.566Z,27.20
2018-05-09T18:50:33.576Z,27.11
2018-05-09T18:52:33.792Z,26.97
2018-05-09T18:53:34.119Z,26.94
2018-05-09T18:54:33.963Z,26.91
2018-05-09T18:55:33.678Z,26.86
2018-05-09T18:56:33.884Z,26.88
2018-05-09T18:58:34.207Z,26.73
2018-05-09T18:59:33.958Z,26.57
2018-05-09T19:00:33.921Z,26.56
2018-05-09T19:01:33.800Z,26.54
2018-05-09T19:02:33.926Z,26.49
2018-05-09T19:04:33.844Z,26.34
2018-05-09T19:05:33.957Z,26.36
2018-05-09T19:06:34.368Z,26.32
2018-05-09T19:07:34.055Z,26.27
2018-05-09T19:08:34.297Z,26.13
2018-05-09T19:09:34.059Z,26.12
2018-05-09T19:10:34.285Z,26.08
2018-05-09T19:11:34.035Z,26.03
2018-05-09T19:12:34.053Z,25.94
2018-05-09T19:13:33.994Z,25.94
2018-05-09T19:14:34.114Z,25.82
2018-05-09T19:15:34.073Z,25.94
2018-05-09T19:16:34.185Z,25.81
2018-05-09T19:17:34.333Z,25.83
2018-05-09T19:18:34.099Z,25.83
2018-05-09T19:19:34.073Z,25.82
2018-05-09T19:20:34.094Z,25.72
2018-05-09T19:21:34.166Z,25.69
2018-05-09T19:22:34.129Z,25.64
2018-05-09T19:23:34.455Z,25.63
2018-05-09T19:24:34.213Z,25.63
2018-05-09T19:25:34.224Z,25.59
2018-05-09T19:26:34.245Z,25.59
2018-05-09T19:27:34.198Z,25.51
2018-05-09T19:28:34.355Z,25.46
2018-05-09T19:29:34.711Z,25.44
2018-05-09T19:30:34.251Z,25.48
2018-05-09T19:31:34.281Z,25.41
2018-05-09T19:32:34.430Z,25.44
2018-05-09T19:33:34.645Z,25.38
2018-05-09T19:34:34.511Z,25.38
2018-05-09T19:35:34.480Z,25.31
2018-05-09T19:36:34.459Z,25.29
2018-05-09T19:37:34.392Z,25.31
2018-05-09T19:38:34.851Z,25.17
2018-05-09T19:39:34.488Z,25.26
2018-05-09T19:40:34.676Z,25.17
2018-05-09T19:42:34.531Z,25.11
2018-05-09T19:43:34.488Z,25.17
2018-05-09T19:44:34.571Z,25.08
2018-05-09T19:45:34.691Z,25.04
2018-05-09T19:46:34.590Z,25.01
2018-05-09T19:47:34.741Z,24.97
2018-05-09T19:48:34.629Z,24.89
2018-05-09T19:49:34.955Z,24.90
2018-05-09T19:50:34.744Z,24.92
2018-05-09T19:51:34.658Z,24.90
2018-05-09T19:52:34.733Z,24.80
2018-05-09T19:53:34.655Z,24.87
2018-05-09T19:55:34.702Z,24.77
2018-05-09T19:56:34.700Z,24.83
2018-05-09T19:57:34.721Z,24.82
2018-05-09T19:58:34.728Z,24.82
2018-05-09T19:59:34.738Z,24.71
2018-05-09T20:00:34.728Z,24.74
2018-05-09T20:01:34.811Z,24.67
2018-05-09T20:02:35.209Z,24.64
2018-05-09T20:03:34.822Z,24.67
2018-05-09T20:04:34.843Z,24.56
2018-05-09T20:05:34.851Z,24.55
2018-05-09T20:06:35.161Z,24.63
2018-05-09T20:07:34.863Z,24.55
2018-05-09T20:08:34.985Z,24.55
2018-05-09T20:09:34.940Z,24.53
2018-05-09T20:10:34.915Z,24.49
2018-05-09T20:11:34.911Z,24.49
2018-05-09T20:12:34.925Z,24.45
2018-05-09T20:13:34.978Z,24.42
2018-05-09T20:14:35.143Z,24.37
2018-05-09T20:15:34.982Z,24.41
2018-05-09T20:16:34.982Z,24.44
2018-05-09T20:17:35.024Z,24.42
2018-05-09T20:18:35.084Z,24.41
2018-05-09T20:19:35.040Z,24.42
2018-05-09T20:20:35.082Z,24.42
2018-05-09T20:21:35.539Z,24.46
2018-05-09T20:22:35.506Z,24.37
2018-05-09T20:23:35.175Z,24.36
2018-05-09T20:24:35.119Z,24.30
2018-05-09T20:25:35.135Z,24.21
2018-05-09T20:26:35.183Z,24.21
2018-05-09T20:27:35.145Z,24.15
2018-05-09T20:28:35.182Z,24.18
2018-05-09T20:29:35.432Z,24.16
2018-05-09T20:30:35.808Z,24.29
2018-05-09T20:31:35.833Z,24.21
2018-05-09T20:32:35.508Z,24.09
2018-05-09T20:33:35.244Z,24.15
2018-05-09T20:34:35.262Z,24.18
2018-05-09T20:35:35.389Z,24.18
2018-05-09T20:36:35.309Z,24.14
2018-05-09T20:37:35.606Z,23.92
2018-05-09T20:38:35.343Z,23.86
2018-05-09T20:39:35.379Z,23.74
2018-05-09T20:40:35.485Z,23.74
2018-05-09T20:41:35.366Z,23.71
2018-05-09T20:42:35.394Z,23.79
2018-05-09T20:43:35.410Z,23.82
2018-05-09T20:44:35.417Z,23.75
2018-05-09T20:45:35.458Z,23.69
2018-05-09T20:46:35.443Z,23.82
2018-05-09T20:47:35.456Z,23.82
2018-05-09T20:48:35.478Z,23.72
2018-05-09T20:49:35.618Z,23.64
2018-05-09T20:50:35.520Z,23.60
2018-05-09T20:52:35.528Z,23.72
2018-05-09T20:53:35.552Z,23.82
2018-05-09T20:54:35.577Z,23.79
2018-05-09T20:56:35.594Z,23.77
2018-05-09T20:57:35.599Z,23.78
2018-05-09T20:58:35.632Z,23.81
2018-05-09T20:59:35.644Z,23.79
2018-05-09T21:00:35.691Z,23.77
2018-05-09T21:01:35.663Z,23.72
2018-05-09T21:02:35.737Z,23.68
2018-05-09T21:03:35.699Z,23.75
2018-05-09T21:04:35.705Z,23.79
2018-05-09T21:05:35.744Z,23.78
2018-05-09T21:06:35.737Z,23.78
2018-05-09T21:07:35.793Z,23.68
2018-05-09T21:09:35.839Z,23.74
2018-05-09T21:10:35.810Z,23.64
2018-05-09T21:11:35.863Z,23.68
2018-05-09T21:12:35.820Z,23.68
2018-05-09T21:13:35.861Z,23.69
2018-05-09T21:14:35.963Z,23.68
2018-05-09T21:15:35.956Z,23.62
2018-05-09T21:16:35.893Z,23.62
2018-05-09T21:17:36.039Z,23.64
2018-05-09T21:18:35.947Z,23.57
2018-05-09T21:19:36.064Z,23.63
2018-05-09T21:20:36.084Z,23.53
2018-05-09T21:21:35.994Z,23.50
2018-05-09T21:22:36.057Z,23.53
2018-05-09T21:23:35.982Z,23.52
2018-05-09T21:24:36.001Z,23.49
2018-05-09T21:25:36.011Z,23.49
2018-05-09T21:26:36.222Z,23.45
2018-05-09T21:27:36.084Z,23.42
2018-05-09T21:28:36.110Z,23.39
2018-05-09T21:29:36.073Z,23.34
2018-05-09T21:30:36.091Z,23.35
2018-05-09T21:31:36.208Z,23.41
2018-05-09T21:32:36.118Z,23.31
2018-05-09T21:33:36.133Z,23.44
2018-05-09T21:34:36.175Z,23.39
2018-05-09T21:35:36.163Z,23.34
2018-05-09T21:36:36.182Z,23.25
2018-05-09T21:37:36.209Z,23.31
2018-05-09T21:38:36.204Z,23.31
2018-05-09T21:39:36.213Z,23.35
2018-05-09T21:40:36.339Z,23.39
2018-05-09T21:41:36.275Z,23.42
2018-05-09T21:42:36.276Z,23.45
2018-05-09T21:43:36.299Z,23.44
2018-05-09T21:44:36.287Z,23.45
2018-05-09T21:45:36.316Z,23.41
2018-05-09T21:46:36.813Z,23.42
2018-05-09T21:47:36.493Z,23.32
2018-05-09T21:48:36.358Z,23.39
2018-05-09T21:49:36.366Z,23.35
2018-05-09T21:50:36.570Z,23.32
2018-05-09T21:51:36.392Z,23.38
2018-05-09T21:52:36.448Z,23.26
2018-05-09T21:53:36.659Z,23.31
2018-05-09T21:55:36.528Z,23.32
2018-05-09T21:57:36.485Z,23.35
2018-05-09T21:58:36.534Z,23.37
2018-05-09T21:59:36.511Z,23.29
2018-05-09T22:00:36.516Z,23.29
2018-05-09T22:01:36.526Z,23.15
2018-05-09T22:02:36.571Z,23.15
2018-05-09T22:03:36.601Z,23.11
2018-05-09T22:04:36.766Z,23.19
2018-05-09T22:05:36.603Z,23.15
2018-05-09T22:06:36.897Z,23.19
2018-05-09T22:07:36.643Z,23.04
2018-05-09T22:08:36.808Z,23.04
2018-05-09T22:09:36.985Z,23.16
2018-05-09T22:10:36.683Z,23.04
2018-05-09T22:12:36.724Z,23.11
2018-05-09T22:13:36.833Z,23.09
2018-05-09T22:14:36.752Z,22.99
2018-05-09T22:15:36.760Z,22.86
2018-05-09T22:16:36.766Z,22.88
2018-05-09T22:17:36.779Z,22.86
2018-05-09T22:18:36.824Z,22.84
2018-05-09T22:20:36.952Z,22.69
2018-05-09T22:21:37.239Z,22.72
2018-05-09T22:22:36.877Z,22.82
2018-05-09T22:23:36.942Z,22.76
2018-05-09T22:24:36.998Z,22.74
2018-05-09T22:25:36.907Z,22.76
2018-05-09T22:26:37.340Z,22.89
2018-05-09T22:27:37.055Z,22.89
2018-05-09T22:28:36.933Z,22.82
2018-05-09T22:29:37.049Z,22.74
2018-05-09T22:30:36.963Z,22.60
2018-05-09T22:31:37.478Z,22.64
2018-05-09T22:32:36.975Z,22.60
2018-05-09T22:33:36.982Z,22.67
2018-05-09T22:35:37.133Z,22.69
2018-05-09T22:36:37.213Z,22.70
2018-05-09T22:37:37.068Z,22.66
2018-05-09T22:38:37.085Z,22.69
2018-05-09T22:39:37.076Z,22.75
2018-05-09T22:40:37.088Z,22.67
2018-05-09T22:41:37.097Z,22.59
2018-05-09T22:42:37.210Z,22.64
2018-05-09T22:43:37.302Z,22.63
2018-05-09T22:44:37.158Z,22.67
2018-05-09T22:45:37.164Z,22.66
2018-05-09T22:46:37.415Z,22.64
2018-05-09T22:47:37.189Z,22.64
2018-05-09T22:48:37.192Z,22.66
2018-05-09T22:49:37.290Z,22.67
2018-05-09T22:50:37.346Z,22.48
2018-05-09T22:51:37.361Z,22.56
2018-05-09T22:52:37.251Z,22.63
2018-05-09T22:53:37.460Z,22.60
2018-05-09T22:54:37.280Z,22.51
2018-05-09T22:56:37.339Z,22.52
2018-05-09T22:57:37.389Z,22.61
2018-05-09T22:58:37.352Z,22.56
2018-05-09T22:59:37.711Z,22.54
2018-05-09T23:00:37.367Z,22.57
2018-05-09T23:01:37.428Z,22.45
2018-05-09T23:02:37.451Z,22.44
2018-05-09T23:03:37.406Z,22.48
2018-05-09T23:05:37.445Z,22.39
2018-05-09T23:06:37.449Z,22.48
2018-05-09T23:07:37.461Z,22.45
2018-05-09T23:08:37.487Z,22.45
2018-05-09T23:09:37.481Z,22.33
2018-05-09T23:10:37.501Z,22.39
2018-05-09T23:11:37.507Z,22.35
2018-05-09T23:12:37.555Z,22.33
2018-05-09T23:13:37.557Z,22.29
2018-05-09T23:15:37.587Z,22.30
2018-05-09T23:16:37.630Z,22.30
2018-05-09T23:18:37.603Z,22.19
2018-05-09T23:19:37.694Z,22.21
2018-05-09T23:20:37.651Z,22.23
2018-05-09T23:21:37.672Z,22.15
2018-05-09T23:22:37.664Z,22.12
2018-05-09T23:23:37.675Z,22.12
2018-05-09T23:24:37.689Z,22.15
2018-05-09T23:25:37.778Z,22.14
2018-05-09T23:26:37.747Z,22.19
2018-05-09T23:27:37.734Z,21.98
2018-05-09T23:28:37.751Z,21.98
2018-05-09T23:29:37.757Z,21.96
2018-05-09T23:30:37.781Z,21.98
2018-05-09T23:31:37.795Z,21.90
2018-05-09T23:32:37.805Z,21.91
2018-05-09T23:33:37.840Z,21.93
2018-05-09T23:35:37.859Z,21.94
2018-05-09T23:36:37.867Z,21.91
2018-05-09T23:37:37.865Z,21.91
2018-05-09T23:38:37.886Z,21.90
2018-05-09T23:39:37.930Z,21.93
2018-05-09T23:40:37.956Z,21.90
2018-05-09T23:41:37.944Z,21.90
2018-05-09T23:42:37.941Z,21.85
2018-05-09T23:43:37.965Z,21.77
2018-05-09T23:44:37.959Z,21.75
2018-05-09T23:45:37.971Z,21.70
2018-05-09T23:46:38.012Z,21.67
2018-05-09T23:47:38.012Z,21.75
2018-05-09T23:48:38.014Z,21.75
2018-05-09T23:50:38.079Z,21.74
2018-05-09T23:51:38.075Z,21.75
2018-05-09T23:52:38.075Z,21.81
2018-05-09T23:53:38.075Z,21.68